createdAt,value
2017-04-11T00:00:53.451Z,0
2017-04-11T00:01:53.983Z,0
2017-04-11T00:02:54.517Z,0
2017-04-11T00:03:55.045Z,0
2017-04-11T00:04:55.575Z,0
2017-04-11T00:05:56.104Z,0
2017-04-11T00:06:56.633Z,0
2017-04-11T00:07:57.163Z,0
2017-04-11T00:08:57.696Z,0
2017-04-11T00:09:58.225Z,0
2017-04-11T00:10:58.908Z,0
2017-04-11T00:11:59.288Z,0
2017-04-11T00:12:59.820Z,0
2017-04-11T00:14:00.356Z,0
2017-04-11T00:15:00.884Z,0
2017-04-11T00:16:01.421Z,0
2017-04-11T00:17:03.752Z,0
2017-04-11T00:18:02.492Z,0
2017-04-11T00:19:03.025Z,0
2017-04-11T00:20:03.575Z,0
2017-04-11T00:21:04.105Z,0
2017-04-11T00:22:04.639Z,0
2017-04-11T00:23:05.155Z,0
2017-04-11T00:24:05.686Z,0
2017-04-11T00:25:06.219Z,0
2017-04-11T00:26:06.753Z,0
2017-04-11T00:27:07.282Z,0
2017-04-11T00:28:07.811Z,0
2017-04-11T00:29:08.342Z,0
2017-04-11T00:30:08.874Z,0
2017-04-11T00:31:09.400Z,0
2017-04-11T00:32:09.935Z,0
2017-04-11T00:33:10.462Z,0
2017-04-11T00:34:10.992Z,0
2017-04-11T00:35:11.525Z,0
2017-04-11T00:36:12.056Z,0
2017-04-11T00:37:12.584Z,0
2017-04-11T00:38:13.114Z,0
2017-04-11T00:39:13.641Z,0
2017-04-11T00:40:14.174Z,0
2017-04-11T00:41:14.705Z,0
2017-04-11T00:42:15.239Z,0
2017-04-11T00:43:15.773Z,0
2017-04-11T00:44:16.306Z,0
2017-04-11T00:45:16.829Z,0
2017-04-11T00:46:17.362Z,0
2017-04-11T00:47:17.891Z,0
2017-04-11T00:48:18.422Z,0
2017-04-11T00:49:19.108Z,0
2017-04-11T00:50:19.480Z,0
2017-04-11T00:51:20.161Z,0
2017-04-11T00:52:20.541Z,0
2017-04-11T00:53:21.070Z,0
2017-04-11T00:54:21.748Z,0
2017-04-11T00:55:22.132Z,0
2017-04-11T00:56:22.666Z,0
2017-04-11T00:57:23.200Z,0
2017-04-11T00:58:23.737Z,0
2017-04-11T00:59:24.271Z,0
2017-04-11T01:00:24.808Z,0
2017-04-11T01:01:25.492Z,0
2017-04-11T01:02:25.868Z,0
2017-04-11T01:03:26.553Z,0
2017-04-11T01:04:26.934Z,0
2017-04-11T01:05:27.469Z,0
2017-04-11T01:06:29.196Z,0
2017-04-11T01:07:28.677Z,0
2017-04-11T01:08:29.060Z,0
2017-04-11T01:09:29.589Z,0
2017-04-11T01:10:30.124Z,0
2017-04-11T01:11:30.649Z,0
2017-04-11T01:12:31.184Z,0
2017-04-11T01:13:31.712Z,0
2017-04-11T01:14:32.245Z,0
2017-04-11T01:15:32.776Z,0
2017-04-11T01:16:33.311Z,0
2017-04-11T01:17:34.090Z,0
2017-04-11T01:18:34.371Z,0
2017-04-11T01:19:35.053Z,0
2017-04-11T01:20:35.437Z,0
2017-04-11T01:21:35.965Z,0
2017-04-11T01:22:36.493Z,0
2017-04-11T01:23:37.024Z,0
2017-04-11T01:24:37.581Z,0
2017-04-11T01:25:38.082Z,0
2017-04-11T01:26:38.617Z,0
2017-04-11T01:27:39.145Z,0
2017-04-11T01:28:39.677Z,0
2017-04-11T01:29:40.208Z,0
2017-04-11T01:30:40.743Z,0
2017-04-11T01:31:41.274Z,0
2017-04-11T01:32:41.803Z,0
2017-04-11T01:33:42.334Z,0
2017-04-11T01:34:42.865Z,0
2017-04-11T01:35:43.397Z,0
2017-04-11T01:36:43.929Z,0
2017-04-11T01:37:44.464Z,0
2017-04-11T01:38:45.002Z,0
2017-04-11T01:39:45.683Z,0
2017-04-11T01:40:46.070Z,0
2017-04-11T01:41:46.598Z,0
2017-04-11T01:42:47.132Z,0
2017-04-11T01:43:47.665Z,0
2017-04-11T01:44:48.194Z,0
2017-04-11T01:45:48.724Z,0
2017-04-11T01:46:49.258Z,0
2017-04-11T01:47:49.825Z,0
2017-04-11T01:48:50.322Z,0
2017-04-11T01:49:50.850Z,0
2017-04-11T01:50:51.385Z,0
2017-04-11T01:51:51.915Z,0
2017-04-11T01:52:52.596Z,0
2017-04-11T01:53:52.975Z,0
2017-04-11T01:54:53.512Z,0
2017-04-11T01:55:54.038Z,0
2017-04-11T01:56:54.574Z,0
2017-04-11T01:57:55.101Z,0
2017-04-11T01:58:55.631Z,0
2017-04-11T01:59:56.164Z,0
2017-04-11T02:00:56.707Z,0
2017-04-11T02:01:57.224Z,0
2017-04-11T02:02:57.758Z,0
2017-04-11T02:03:58.299Z,0
2017-04-11T02:04:58.827Z,0
2017-04-11T02:05:59.353Z,0
2017-04-11T02:06:59.888Z,0
2017-04-11T02:08:00.414Z,0
2017-04-11T02:09:00.952Z,0
2017-04-11T02:10:01.482Z,0
2017-04-11T02:11:02.013Z,0
2017-04-11T02:12:02.698Z,0
2017-04-11T02:13:03.229Z,0
2017-04-11T02:14:03.608Z,0
2017-04-11T02:15:04.140Z,0
2017-04-11T02:16:04.669Z,0
2017-04-11T02:17:05.204Z,0
2017-04-11T02:18:05.735Z,0
2017-04-11T02:19:06.265Z,0
2017-04-11T02:20:06.798Z,0
2017-04-11T02:21:07.339Z,0
2017-04-11T02:22:07.870Z,0
2017-04-11T02:23:08.404Z,0
2017-04-11T02:24:09.113Z,0
2017-04-11T02:25:09.472Z,0
2017-04-11T02:26:10.008Z,0
2017-04-11T02:27:10.532Z,0
2017-04-11T02:28:11.063Z,0
2017-04-11T02:29:11.595Z,0
2017-04-11T02:30:12.136Z,0
2017-04-11T02:31:12.660Z,0
2017-04-11T02:32:13.195Z,0
2017-04-11T02:33:13.724Z,0
2017-04-11T02:34:14.246Z,0
2017-04-11T02:35:14.777Z,0
2017-04-11T02:36:15.312Z,0
2017-04-11T02:37:15.991Z,0
2017-04-11T02:38:16.524Z,0
2017-04-11T02:39:16.906Z,0
2017-04-11T02:40:17.627Z,0
2017-04-11T02:41:17.970Z,0
2017-04-11T02:42:18.498Z,0
2017-04-11T02:43:19.036Z,0
2017-04-11T02:44:19.562Z,0
2017-04-11T02:45:20.096Z,0
2017-04-11T02:46:20.648Z,0
2017-04-11T02:47:21.155Z,0
2017-04-11T02:48:21.684Z,0
2017-04-11T02:49:22.221Z,0
2017-04-11T02:50:22.746Z,0
2017-04-11T02:51:23.280Z,0
2017-04-11T02:52:23.813Z,0
2017-04-11T02:53:24.345Z,0
2017-04-11T02:54:25.024Z,0
2017-04-11T02:55:25.401Z,0
2017-04-11T02:56:25.931Z,0
2017-04-11T02:57:26.468Z,0
2017-04-11T02:58:26.999Z,0
2017-04-11T02:59:27.531Z,0
2017-04-11T03:00:28.098Z,0
2017-04-11T03:01:28.602Z,0
2017-04-11T03:02:29.136Z,0
2017-04-11T03:03:29.670Z,0
2017-04-11T03:04:30.350Z,0
2017-04-11T03:05:30.736Z,0
2017-04-11T03:06:31.264Z,0
2017-04-11T03:07:31.793Z,0
2017-04-11T03:08:32.475Z,0
2017-04-11T03:09:33.003Z,0
2017-04-11T03:10:33.391Z,0
2017-04-11T03:11:33.916Z,0
2017-04-11T03:12:34.448Z,0
2017-04-11T03:13:34.976Z,0
2017-04-11T03:14:35.509Z,0
2017-04-11T03:15:36.039Z,0
2017-04-11T03:16:36.567Z,0
2017-04-11T03:17:37.251Z,0
2017-04-11T03:18:37.627Z,0
2017-04-11T03:19:38.160Z,0
2017-04-11T03:20:38.842Z,0
2017-04-11T03:21:39.225Z,0
2017-04-11T03:22:39.758Z,0
2017-04-11T03:23:40.289Z,0
2017-04-11T03:24:40.820Z,0
2017-04-11T03:25:41.350Z,0
2017-04-11T03:26:41.886Z,0
2017-04-11T03:27:42.417Z,0
2017-04-11T03:28:42.945Z,0
2017-04-11T03:29:43.480Z,0
2017-04-11T03:30:44.009Z,0
2017-04-11T03:31:44.534Z,0
2017-04-11T03:32:45.106Z,0
2017-04-11T03:33:45.599Z,0
2017-04-11T03:34:46.128Z,0
2017-04-11T03:35:46.660Z,0
2017-04-11T03:36:47.188Z,0
2017-04-11T03:37:47.727Z,0
2017-04-11T03:38:48.280Z,0
2017-04-11T03:39:48.784Z,0
2017-04-11T03:40:49.467Z,0
2017-04-11T03:41:49.858Z,0
2017-04-11T03:42:50.545Z,0
2017-04-11T03:43:50.936Z,0
2017-04-11T03:44:51.462Z,0
2017-04-11T03:45:51.996Z,0
2017-04-11T03:46:52.527Z,0
2017-04-11T03:47:53.062Z,0
2017-04-11T03:48:54.041Z,0
2017-04-11T03:49:54.125Z,0
2017-04-11T03:50:54.655Z,0
2017-04-11T03:51:55.187Z,0
2017-04-11T03:52:55.718Z,0
2017-04-11T03:53:56.247Z,0
2017-04-11T03:54:56.779Z,0
2017-04-11T03:55:57.317Z,0
2017-04-11T03:56:57.878Z,0
2017-04-11T03:57:58.379Z,0
2017-04-11T03:58:58.907Z,0
2017-04-11T03:59:59.438Z,0
2017-04-11T04:00:59.975Z,0
2017-04-11T04:02:00.502Z,0
2017-04-11T04:03:01.036Z,0
2017-04-11T04:04:01.568Z,0
2017-04-11T04:05:02.247Z,0
2017-04-11T04:06:02.640Z,0
2017-04-11T04:07:03.162Z,0
2017-04-11T04:08:03.693Z,0
2017-04-11T04:09:04.253Z,0
2017-04-11T04:10:04.754Z,0
2017-04-11T04:11:05.288Z,0
2017-04-11T04:12:05.967Z,0
2017-04-11T04:13:06.350Z,0
2017-04-11T04:14:06.881Z,0
2017-04-11T04:15:07.406Z,0
2017-04-11T04:16:07.950Z,0
2017-04-11T04:17:08.475Z,0
2017-04-11T04:18:09.008Z,0
2017-04-11T04:19:09.536Z,0
2017-04-11T04:20:10.067Z,0
2017-04-11T04:21:10.599Z,0
2017-04-11T04:22:11.136Z,0
2017-04-11T04:23:11.818Z,0
2017-04-11T04:24:12.205Z,0
2017-04-11T04:25:12.742Z,0
2017-04-11T04:26:13.271Z,0
2017-04-11T04:27:13.800Z,0
2017-04-11T04:28:14.337Z,0
2017-04-11T04:29:14.865Z,0
2017-04-11T04:30:15.402Z,0
2017-04-11T04:31:15.932Z,0
2017-04-11T04:32:16.466Z,0
2017-04-11T04:33:17.150Z,0
2017-04-11T04:34:17.529Z,0
2017-04-11T04:35:18.060Z,0
2017-04-11T04:36:18.594Z,0
2017-04-11T04:37:19.120Z,0
2017-04-11T04:38:19.656Z,0
2017-04-11T04:39:20.188Z,0
2017-04-11T04:40:20.719Z,0
2017-04-11T04:41:21.399Z,0
2017-04-11T04:42:21.782Z,0
2017-04-11T04:43:22.313Z,0
2017-04-11T04:44:22.846Z,0
2017-04-11T04:45:23.525Z,0
2017-04-11T04:46:23.911Z,0
2017-04-11T04:47:24.441Z,0
2017-04-11T04:48:24.976Z,0
2017-04-11T04:49:25.502Z,0
2017-04-11T04:50:26.040Z,0
2017-04-11T04:51:26.718Z,0
2017-04-11T04:52:27.102Z,0
2017-04-11T04:53:27.634Z,0
2017-04-11T04:54:28.168Z,0
2017-04-11T04:55:28.690Z,0
2017-04-11T04:56:29.225Z,0
2017-04-11T04:57:29.759Z,0
2017-04-11T04:58:30.290Z,0
2017-04-11T04:59:30.838Z,0
2017-04-11T05:00:31.356Z,0
2017-04-11T05:01:31.884Z,0
2017-04-11T05:02:32.425Z,0
2017-04-11T05:03:32.978Z,0
2017-04-11T05:04:33.485Z,0
2017-04-11T05:05:34.021Z,0
2017-04-11T05:06:34.553Z,0
2017-04-11T05:07:35.083Z,0
2017-04-11T05:08:35.621Z,0
2017-04-11T05:09:36.162Z,0
2017-04-11T05:10:36.685Z,0
2017-04-11T05:11:37.215Z,0
2017-04-11T05:12:37.743Z,0
2017-04-11T05:13:38.274Z,0
2017-04-11T05:14:38.807Z,0
2017-04-11T05:15:39.340Z,0
2017-04-11T05:16:39.868Z,0
2017-04-11T05:17:40.398Z,0
2017-04-11T05:18:40.930Z,0
2017-04-11T05:19:41.610Z,0
2017-04-11T05:20:42.005Z,15
2017-04-11T05:21:42.523Z,17
2017-04-11T05:22:43.060Z,18
2017-04-11T05:23:43.636Z,19
2017-04-11T05:24:44.117Z,22
2017-04-11T05:25:44.650Z,25
2017-04-11T05:26:45.180Z,27
2017-04-11T05:27:45.713Z,28
2017-04-11T05:28:46.246Z,29
2017-04-11T05:29:47.109Z,32
2017-04-11T05:30:47.308Z,35
2017-04-11T05:31:47.837Z,36
2017-04-11T05:32:48.369Z,40
2017-04-11T05:33:48.907Z,42
2017-04-11T05:34:49.436Z,45
2017-04-11T05:35:49.964Z,47
2017-04-11T05:36:50.492Z,48
2017-04-11T05:37:51.025Z,49
2017-04-11T05:38:51.561Z,49
2017-04-11T05:39:52.087Z,49
2017-04-11T05:40:52.630Z,49
2017-04-11T05:41:53.157Z,49
2017-04-11T05:42:53.690Z,49
2017-04-11T05:43:54.230Z,48
2017-04-11T05:44:54.757Z,47
2017-04-11T05:45:55.300Z,43
2017-04-11T05:46:55.834Z,40
2017-04-11T05:47:56.367Z,39
2017-04-11T05:48:56.901Z,37
2017-04-11T05:49:57.428Z,31
2017-04-11T05:50:57.966Z,30
2017-04-11T05:51:58.490Z,28
2017-04-11T05:52:59.018Z,28
2017-04-11T05:53:59.567Z,30
2017-04-11T05:55:00.082Z,31
2017-04-11T05:56:00.608Z,41
2017-04-11T05:57:01.142Z,57
2017-04-11T05:58:01.675Z,73
2017-04-11T05:59:02.205Z,68
2017-04-11T06:00:02.734Z,77
2017-04-11T06:01:03.412Z,83
2017-04-11T06:02:03.830Z,90
2017-04-11T06:03:04.335Z,95
2017-04-11T06:04:04.861Z,96
2017-04-11T06:05:05.394Z,97
2017-04-11T06:06:05.923Z,100
2017-04-11T06:07:06.461Z,103
2017-04-11T06:08:06.989Z,105
2017-04-11T06:09:07.525Z,104
2017-04-11T06:10:08.059Z,112
2017-04-11T06:11:08.582Z,114
2017-04-11T06:12:09.111Z,118
2017-04-11T06:13:09.642Z,125
2017-04-11T06:14:10.176Z,126
2017-04-11T06:16:11.246Z,129
2017-04-11T06:17:11.769Z,136
2017-04-11T06:18:12.297Z,135
2017-04-11T06:19:12.831Z,130
2017-04-11T06:20:13.507Z,125
2017-04-11T06:21:13.892Z,118
2017-04-11T06:22:14.445Z,116
2017-04-11T06:23:14.957Z,117
2017-04-11T06:24:15.491Z,118
2017-04-11T06:25:16.028Z,122
2017-04-11T06:26:16.713Z,128
2017-04-11T06:27:17.100Z,139
2017-04-11T06:28:17.633Z,140
2017-04-11T06:29:18.171Z,135
2017-04-11T06:30:18.704Z,132
2017-04-11T06:32:19.768Z,145
2017-04-11T06:33:20.303Z,150
2017-04-11T06:34:20.830Z,148
2017-04-11T06:35:21.521Z,126
2017-04-11T06:36:21.900Z,146
2017-04-11T06:37:22.427Z,138
2017-04-11T06:38:23.107Z,145
2017-04-11T06:39:23.494Z,140
2017-04-11T06:40:24.023Z,139
2017-04-11T06:41:24.699Z,232
2017-04-11T06:42:25.082Z,250
2017-04-11T06:44:26.146Z,245
2017-04-11T06:45:26.679Z,258
2017-04-11T06:46:27.209Z,260
2017-04-11T06:47:27.741Z,216
2017-04-11T06:48:28.275Z,248
2017-04-11T06:50:29.337Z,267
2017-04-11T06:51:29.867Z,287
2017-04-11T06:52:30.398Z,308
2017-04-11T06:53:30.931Z,310
2017-04-11T06:54:31.459Z,313
2017-04-11T06:55:31.990Z,324
2017-04-11T06:56:32.526Z,326
2017-04-11T06:57:33.197Z,342
2017-04-11T06:58:33.731Z,339
2017-04-11T06:59:34.112Z,392
2017-04-11T07:00:34.651Z,414
2017-04-11T07:01:35.178Z,414
2017-04-11T07:02:35.709Z,416
2017-04-11T07:03:36.245Z,421
2017-04-11T07:04:36.772Z,422
2017-04-11T07:05:37.324Z,419
2017-04-11T07:06:37.990Z,436
2017-04-11T07:07:38.375Z,444
2017-04-11T07:09:39.443Z,479
2017-04-11T07:10:39.975Z,501
2017-04-11T07:11:40.509Z,509
2017-04-11T07:12:41.049Z,509
2017-04-11T07:13:41.568Z,505
2017-04-11T07:14:42.250Z,508
2017-04-11T07:15:42.639Z,554
2017-04-11T07:16:43.318Z,556
2017-04-11T07:17:43.697Z,548
2017-04-11T07:18:44.376Z,551
2017-04-11T07:19:44.906Z,534
2017-04-11T07:20:45.289Z,456
2017-04-11T07:21:45.819Z,552
2017-04-11T07:22:46.498Z,504
2017-04-11T07:23:46.880Z,540
2017-04-11T07:24:47.557Z,590
2017-04-11T07:25:47.943Z,484
2017-04-11T07:26:48.623Z,460
2017-04-11T07:27:49.005Z,542
2017-04-11T07:28:49.535Z,521
2017-04-11T07:29:50.063Z,611
2017-04-11T07:30:50.632Z,672
2017-04-11T07:31:51.128Z,683
2017-04-11T07:32:51.659Z,375
2017-04-11T07:33:52.187Z,380
2017-04-11T07:34:52.716Z,438
2017-04-11T07:35:53.250Z,317
2017-04-11T07:36:53.932Z,650
2017-04-11T07:37:54.315Z,436
2017-04-11T07:38:54.849Z,529
2017-04-11T07:39:55.374Z,522
2017-04-11T07:40:55.943Z,522
2017-04-11T07:41:56.437Z,563
2017-04-11T07:42:56.965Z,564
2017-04-11T07:43:57.497Z,632
2017-04-11T07:44:58.028Z,603
2017-04-11T07:45:58.557Z,722
2017-04-11T07:46:59.088Z,732
2017-04-11T07:47:59.627Z,601
2017-04-11T07:49:00.161Z,710
2017-04-11T07:50:00.692Z,448
2017-04-11T07:51:01.376Z,324
2017-04-11T07:52:01.757Z,526
2017-04-11T07:53:02.285Z,684
2017-04-11T07:54:02.815Z,640
2017-04-11T07:55:03.377Z,662
2017-04-11T07:56:03.881Z,645
2017-04-11T07:57:04.415Z,688
2017-04-11T07:58:04.947Z,652
2017-04-11T07:59:05.473Z,647
2017-04-11T08:00:06.002Z,539
2017-04-11T08:01:06.537Z,630
2017-04-11T08:02:07.070Z,701
2017-04-11T08:03:07.599Z,549
2017-04-11T08:04:08.128Z,677
2017-04-11T08:05:08.657Z,680
2017-04-11T08:06:09.191Z,676
2017-04-11T08:07:09.722Z,410
2017-04-11T08:08:10.251Z,568
2017-04-11T08:09:10.781Z,684
2017-04-11T08:10:11.315Z,678
2017-04-11T08:11:11.845Z,703
2017-04-11T08:12:12.384Z,699
2017-04-11T08:13:12.906Z,703
2017-04-11T08:14:13.439Z,716
2017-04-11T08:15:13.969Z,611
2017-04-11T08:16:14.506Z,725
2017-04-11T08:17:15.038Z,705
2017-04-11T08:18:15.567Z,746
2017-04-11T08:19:16.095Z,769
2017-04-11T08:20:16.624Z,774
2017-04-11T08:21:17.157Z,797
2017-04-11T08:23:18.225Z,847
2017-04-11T08:24:18.754Z,809
2017-04-11T08:25:19.293Z,646
2017-04-11T08:26:19.817Z,487
2017-04-11T08:27:20.352Z,855
2017-04-11T08:28:20.885Z,878
2017-04-11T08:29:21.432Z,963
2017-04-11T08:30:21.959Z,1009
2017-04-11T08:31:22.489Z,657
2017-04-11T08:32:23.027Z,669
2017-04-11T08:33:23.696Z,558
2017-04-11T08:34:24.076Z,826
2017-04-11T08:35:24.608Z,621
2017-04-11T08:36:25.137Z,485
2017-04-11T08:37:25.672Z,612
2017-04-11T08:38:26.204Z,634
2017-04-11T08:39:27.005Z,720
2017-04-11T08:40:27.269Z,638
2017-04-11T08:41:27.789Z,765
2017-04-11T08:42:28.347Z,644
2017-04-11T08:43:28.857Z,1108
2017-04-11T08:44:29.387Z,562
2017-04-11T08:45:29.915Z,511
2017-04-11T08:46:30.447Z,737
2017-04-11T08:47:30.989Z,415
2017-04-11T08:48:31.520Z,497
2017-04-11T08:49:32.043Z,593
2017-04-11T08:50:32.575Z,491
2017-04-11T08:51:33.114Z,541
2017-04-11T08:52:33.638Z,690
2017-04-11T08:53:34.170Z,815
2017-04-11T08:54:34.700Z,699
2017-04-11T08:55:35.224Z,751
2017-04-11T08:56:35.757Z,537
2017-04-11T08:57:36.304Z,543
2017-04-11T08:58:36.820Z,542
2017-04-11T08:59:37.387Z,735
2017-04-11T09:00:37.884Z,647
2017-04-11T09:01:38.412Z,639
2017-04-11T09:02:38.945Z,584
2017-04-11T09:03:39.511Z,768
2017-04-11T09:04:40.011Z,691
2017-04-11T09:05:40.537Z,596
2017-04-11T09:06:41.220Z,643
2017-04-11T09:07:41.612Z,603
2017-04-11T09:08:42.142Z,560
2017-04-11T09:09:42.675Z,562
2017-04-11T09:10:43.355Z,541
2017-04-11T09:11:43.761Z,544
2017-04-11T09:12:44.280Z,531
2017-04-11T09:13:44.808Z,546
2017-04-11T09:14:45.342Z,654
2017-04-11T09:15:45.874Z,640
2017-04-11T09:16:46.399Z,609
2017-04-11T09:17:46.933Z,636
2017-04-11T09:18:47.465Z,675
2017-04-11T09:19:47.991Z,756
2017-04-11T09:20:48.669Z,691
2017-04-11T09:21:49.207Z,643
2017-04-11T09:22:49.580Z,633
2017-04-11T09:23:50.259Z,675
2017-04-11T09:24:50.638Z,717
2017-04-11T09:25:51.169Z,619
2017-04-11T09:26:51.697Z,607
2017-04-11T09:27:52.376Z,621
2017-04-11T09:28:52.756Z,602
2017-04-11T09:29:53.286Z,600
2017-04-11T09:30:53.815Z,606
2017-04-11T09:31:54.350Z,583
2017-04-11T09:32:54.876Z,556
2017-04-11T09:33:55.416Z,532
2017-04-11T09:34:55.946Z,523
2017-04-11T09:35:56.471Z,523
2017-04-11T09:36:57.002Z,529
2017-04-11T09:37:57.530Z,546
2017-04-11T09:38:58.205Z,549
2017-04-11T09:39:58.591Z,551
2017-04-11T09:40:59.124Z,550
2017-04-11T09:41:59.795Z,542
2017-04-11T09:43:00.176Z,517
2017-04-11T09:44:00.705Z,499
2017-04-11T09:45:01.237Z,482
2017-04-11T09:46:01.768Z,479
2017-04-11T09:47:02.306Z,486
2017-04-11T09:48:02.861Z,522
2017-04-11T09:49:03.367Z,603
2017-04-11T09:50:03.901Z,704
2017-04-11T09:51:04.434Z,774
2017-04-11T09:52:04.971Z,815
2017-04-11T09:53:05.505Z,669
2017-04-11T09:54:06.033Z,770
2017-04-11T09:55:06.566Z,743
2017-04-11T09:56:07.102Z,712
2017-04-11T09:57:07.633Z,752
2017-04-11T09:58:08.310Z,652
2017-04-11T09:59:08.745Z,610
2017-04-11T10:00:09.218Z,569
2017-04-11T10:01:09.752Z,541
2017-04-11T10:02:10.430Z,570
2017-04-11T10:03:10.815Z,787
2017-04-11T10:04:11.343Z,999
2017-04-11T10:05:11.875Z,735
2017-04-11T10:06:12.411Z,849
2017-04-11T10:07:12.937Z,812
2017-04-11T10:08:13.471Z,743
2017-04-11T10:09:14.002Z,731
2017-04-11T10:10:14.530Z,658
2017-04-11T10:11:15.064Z,788
2017-04-11T10:12:15.591Z,1125
2017-04-11T10:13:16.127Z,1142
2017-04-11T10:14:16.805Z,935
2017-04-11T10:15:17.189Z,814
2017-04-11T10:16:17.869Z,1067
2017-04-11T10:17:18.249Z,1149
2017-04-11T10:18:18.778Z,1050
2017-04-11T10:19:19.308Z,961
2017-04-11T10:20:19.840Z,987
2017-04-11T10:21:20.376Z,799
2017-04-11T10:22:20.916Z,1172
2017-04-11T10:23:21.430Z,773
2017-04-11T10:24:21.972Z,1083
2017-04-11T10:25:22.498Z,1034
2017-04-11T10:26:23.023Z,1032
2017-04-11T10:27:23.552Z,951
2017-04-11T10:28:24.080Z,965
2017-04-11T10:29:24.613Z,892
2017-04-11T10:30:25.147Z,998
2017-04-11T10:31:25.681Z,982
2017-04-11T10:32:26.222Z,1015
2017-04-11T10:33:26.754Z,1052
2017-04-11T10:34:27.285Z,1043
2017-04-11T10:35:27.821Z,1028
2017-04-11T10:36:28.349Z,1047
2017-04-11T10:37:28.882Z,1036
2017-04-11T10:38:29.418Z,1015
2017-04-11T10:39:29.940Z,1034
2017-04-11T10:40:30.471Z,1040
2017-04-11T10:41:31.002Z,1050
2017-04-11T10:42:31.529Z,1050
2017-04-11T10:43:32.060Z,1059
2017-04-11T10:44:32.593Z,953
2017-04-11T10:45:33.123Z,1064
2017-04-11T10:46:33.657Z,1082
2017-04-11T10:47:34.331Z,1106
2017-04-11T10:48:34.715Z,1145
2017-04-11T10:49:35.247Z,1174
2017-04-11T10:50:35.779Z,1174
2017-04-11T10:51:36.321Z,1151
2017-04-11T10:52:36.994Z,1150
2017-04-11T10:53:37.375Z,1135
2017-04-11T10:54:37.908Z,1136
2017-04-11T10:55:38.443Z,1124
2017-04-11T10:56:38.968Z,1144
2017-04-11T10:57:39.506Z,1128
2017-04-11T10:58:40.034Z,1123
2017-04-11T10:59:40.569Z,765
2017-04-11T11:00:41.098Z,1077
2017-04-11T11:01:41.629Z,1069
2017-04-11T11:02:42.169Z,1078
2017-04-11T11:03:42.693Z,987
2017-04-11T11:04:43.220Z,299
2017-04-11T11:05:43.755Z,1054
2017-04-11T11:06:44.283Z,1120
2017-04-11T11:07:44.813Z,1174
2017-04-11T11:08:45.339Z,1115
2017-04-11T11:09:45.877Z,1147
2017-04-11T11:10:46.406Z,1222
2017-04-11T11:11:46.938Z,1287
2017-04-11T11:12:47.468Z,1291
2017-04-11T11:13:48.013Z,1200
2017-04-11T11:14:48.574Z,491
2017-04-11T11:15:49.075Z,915
2017-04-11T11:16:49.755Z,535
2017-04-11T11:17:50.138Z,994
2017-04-11T11:18:50.685Z,870
2017-04-11T11:19:51.199Z,416
2017-04-11T11:20:51.730Z,382
2017-04-11T11:21:52.267Z,958
2017-04-11T11:22:52.790Z,367
2017-04-11T11:23:53.320Z,791
2017-04-11T11:24:53.859Z,773
2017-04-11T11:25:54.382Z,771
2017-04-11T11:26:54.948Z,556
2017-04-11T11:27:55.452Z,876
2017-04-11T11:28:55.969Z,1185
2017-04-11T11:29:56.509Z,795
2017-04-11T11:30:57.038Z,571
2017-04-11T11:31:57.564Z,375
2017-04-11T11:32:58.109Z,640
2017-04-11T11:33:58.629Z,621
2017-04-11T11:34:59.164Z,1198
2017-04-11T11:35:59.688Z,1190
2017-04-11T11:37:00.365Z,1197
2017-04-11T11:38:00.745Z,1082
2017-04-11T11:39:01.278Z,1069
2017-04-11T11:40:01.833Z,379
2017-04-11T11:41:02.331Z,580
2017-04-11T11:42:02.869Z,1268
2017-04-11T11:43:03.399Z,1103
2017-04-11T11:44:03.930Z,954
2017-04-11T11:45:04.613Z,960
2017-04-11T11:46:04.998Z,910
2017-04-11T11:47:05.521Z,1126
2017-04-11T11:48:06.054Z,1113
2017-04-11T11:49:06.581Z,1069
2017-04-11T11:50:07.112Z,1105
2017-04-11T11:51:07.645Z,365
2017-04-11T11:52:08.181Z,1010
2017-04-11T11:53:08.713Z,1089
2017-04-11T11:54:09.250Z,1023
2017-04-11T11:55:09.786Z,1060
2017-04-11T11:56:10.319Z,1086
2017-04-11T11:57:10.853Z,1119
2017-04-11T11:58:11.389Z,1124
2017-04-11T11:59:12.062Z,1120
2017-04-11T12:00:12.447Z,1128
2017-04-11T12:01:12.977Z,1041
2017-04-11T12:02:13.512Z,677
2017-04-11T12:03:14.042Z,841
2017-04-11T12:04:14.568Z,867
2017-04-11T12:05:15.098Z,704
2017-04-11T12:06:15.629Z,937
2017-04-11T12:07:16.156Z,1049
2017-04-11T12:08:16.687Z,583
2017-04-11T12:09:17.218Z,487
2017-04-11T12:10:17.747Z,497
2017-04-11T12:11:18.277Z,649
2017-04-11T12:12:18.812Z,875
2017-04-11T12:13:19.351Z,1072
2017-04-11T12:14:19.873Z,1186
2017-04-11T12:15:20.409Z,1142
2017-04-11T12:16:21.118Z,1106
2017-04-11T12:17:21.466Z,1134
2017-04-11T12:18:21.996Z,1145
2017-04-11T12:19:22.676Z,1105
2017-04-11T12:20:23.056Z,1088
2017-04-11T12:21:23.588Z,736
2017-04-11T12:22:24.117Z,500
2017-04-11T12:23:24.646Z,357
2017-04-11T12:24:25.177Z,1119
2017-04-11T12:25:25.718Z,903
2017-04-11T12:26:26.242Z,805
2017-04-11T12:27:26.770Z,1098
2017-04-11T12:28:27.300Z,1034
2017-04-11T12:29:27.829Z,1041
2017-04-11T12:30:28.360Z,1036
2017-04-11T12:31:29.041Z,1039
2017-04-11T12:32:29.431Z,1042
2017-04-11T12:33:29.960Z,1052
2017-04-11T12:34:30.488Z,887
2017-04-11T12:35:31.174Z,940
2017-04-11T12:36:31.707Z,367
2017-04-11T12:37:32.089Z,284
2017-04-11T12:38:32.623Z,1085
2017-04-11T12:39:33.153Z,1063
2017-04-11T12:40:33.686Z,1077
2017-04-11T12:41:34.216Z,307
2017-04-11T12:42:34.752Z,468
2017-04-11T12:43:35.285Z,1066
2017-04-11T12:44:35.815Z,1012
2017-04-11T12:45:36.357Z,999
2017-04-11T12:46:36.876Z,248
2017-04-11T12:47:37.558Z,246
2017-04-11T12:48:37.951Z,1168
2017-04-11T12:49:38.472Z,389
2017-04-11T12:50:39.005Z,393
2017-04-11T12:51:39.534Z,972
2017-04-11T12:52:40.067Z,1170
2017-04-11T12:53:40.599Z,368
2017-04-11T12:54:41.127Z,1202
2017-04-11T12:55:41.659Z,1182
2017-04-11T12:56:42.190Z,1195
2017-04-11T12:57:42.756Z,942
2017-04-11T12:58:43.252Z,1107
2017-04-11T12:59:43.793Z,1089
2017-04-11T13:00:44.357Z,1071
2017-04-11T13:01:44.851Z,1056
2017-04-11T13:02:45.379Z,1051
2017-04-11T13:03:45.913Z,687
2017-04-11T13:04:46.444Z,483
2017-04-11T13:05:46.967Z,562
2017-04-11T13:06:47.498Z,552
2017-04-11T13:07:48.031Z,755
2017-04-11T13:08:48.557Z,583
2017-04-11T13:09:49.101Z,523
2017-04-11T13:10:49.624Z,874
2017-04-11T13:11:50.154Z,525
2017-04-11T13:12:50.685Z,476
2017-04-11T13:13:51.228Z,484
2017-04-11T13:14:51.761Z,520
2017-04-11T13:15:52.299Z,682
2017-04-11T13:16:52.823Z,543
2017-04-11T13:17:53.364Z,535
2017-04-11T13:18:53.891Z,519
2017-04-11T13:19:54.421Z,451
2017-04-11T13:20:55.100Z,454
2017-04-11T13:21:55.482Z,458
2017-04-11T13:22:56.011Z,446
2017-04-11T13:23:56.694Z,432
2017-04-11T13:24:57.078Z,436
2017-04-11T13:25:57.600Z,453
2017-04-11T13:26:58.133Z,480
2017-04-11T13:27:58.667Z,659
2017-04-11T13:28:59.197Z,491
2017-04-11T13:29:59.730Z,450
2017-04-11T13:31:00.264Z,458
2017-04-11T13:32:00.942Z,454
2017-04-11T13:33:01.325Z,444
2017-04-11T13:34:01.861Z,441
2017-04-11T13:35:02.394Z,425
2017-04-11T13:36:02.918Z,430
2017-04-11T13:37:03.450Z,445
2017-04-11T13:38:03.979Z,486
2017-04-11T13:39:04.514Z,527
2017-04-11T13:40:05.041Z,502
2017-04-11T13:41:05.583Z,551
2017-04-11T13:42:06.115Z,493
2017-04-11T13:43:06.638Z,490
2017-04-11T13:44:07.168Z,434
2017-04-11T13:45:07.702Z,421
2017-04-11T13:46:08.231Z,462
2017-04-11T13:47:08.767Z,465
2017-04-11T13:48:09.291Z,476
2017-04-11T13:49:09.826Z,438
2017-04-11T13:50:10.365Z,430
2017-04-11T13:51:10.889Z,420
2017-04-11T13:52:11.420Z,396
2017-04-11T13:53:11.951Z,373
2017-04-11T13:54:12.632Z,357
2017-04-11T13:55:13.016Z,349
2017-04-11T13:56:13.543Z,348
2017-04-11T13:57:14.226Z,345
2017-04-11T13:58:14.616Z,336
2017-04-11T13:59:15.156Z,336
2017-04-11T14:00:15.835Z,332
2017-04-11T14:01:16.224Z,340
2017-04-11T14:02:16.754Z,357
2017-04-11T14:03:17.276Z,372
2017-04-11T14:04:17.806Z,382
2017-04-11T14:05:18.334Z,388
2017-04-11T14:06:18.864Z,386
2017-04-11T14:07:19.544Z,368
2017-04-11T14:08:19.973Z,371
2017-04-11T14:09:20.463Z,422
2017-04-11T14:10:20.991Z,461
2017-04-11T14:11:21.519Z,464
2017-04-11T14:12:22.197Z,417
2017-04-11T14:13:22.580Z,378
2017-04-11T14:14:23.115Z,354
2017-04-11T14:15:23.642Z,351
2017-04-11T14:16:24.174Z,361
2017-04-11T14:17:24.706Z,365
2017-04-11T14:18:25.251Z,357
2017-04-11T14:19:25.833Z,343